Jack C. Davis Observatory, Carson City, Nevada Weather observations

Data are for observation ending at time listed.
 Day   Time    Ave.   Ave.  Ave.  Vector   Max.   Stn.    Total    Solar   Ave.  
  of    of     Air    Rel.  Wind   Wind    Wind   Baro.  Precip.   Rad.    Soil  
Year   Day     Temp.  Hum.  Speed  Dir.    Gust   Pres.                    Temp. 
2014   (PST)    F      %     mph   deg.    mph     mb.     in.     W/m2     F   
------------------------------------------------------------------------------
 262   18:30   72.8    26    3.3   329      7.3   845.6    0.00       0    999.0
 262   18:40   72.6    26    4.4   325      9.0   845.7    0.00       0    999.0
 262   18:50   70.8    28    3.6   324      6.5   845.8    0.00       0    999.0
 262   19:00   68.8    30    4.9   310      6.7   845.9    0.00       0    999.0
 262   19:10   69.1    29    5.0   301      6.5   846.0    0.00       0    999.0
 262   19:20   69.5    29    5.6   312      7.4   846.1    0.00       0    999.0
 262   19:30   68.1    30    3.8   321      5.9   846.1    0.00       0    999.0
 262   19:40   69.1    28    3.2   318      5.7   846.2    0.00       0    999.0
 262   19:50   68.6    29    3.1   330      5.7   846.2    0.00       0    999.0
 262   20:00   67.7    30    4.9   316      7.1   846.3    0.00       0    999.0
 262   20:10   67.2    30    6.2   315      8.7   846.3    0.00       0    999.0
 262   20:20   67.2    30    6.7   312      8.8   846.4    0.00       0    999.0
 262   20:30   67.4    30    7.2   318     10.4   846.4    0.00       0    999.0
 262   20:40   67.5    30    6.9   312      9.9   846.5    0.00       0    999.0
 262   20:50   66.8    31    7.7   312     10.7   846.6    0.00       0    999.0
 262   21:00   66.6    31    7.5   315     10.2   846.6    0.00       0    999.0
 262   21:10   65.7    32    7.2   320     10.2   846.7    0.00       0    999.0
 262   21:20   65.4    32    7.1   320     10.1   846.7    0.00       0    999.0
 262   21:30   66.8    31    6.9   327     11.2   846.7    0.00       0    999.0
 262   21:40   68.8    29    7.8   322     13.1   846.8    0.00       0    999.0
 262   21:50   69.3    30    7.4   326     12.6   846.8    0.00       0    999.0
 262   22:00   67.9    31    5.8   329      9.7   846.8    0.00       0    999.0
 262   22:10   68.2    31    7.0   322     13.0   846.8    0.00       0    999.0
 262   22:20   68.5    31    3.5   339      9.0   847.0    0.00       0    999.0
 262   22:30   69.7    30   10.4   309     15.8   846.9    0.00       0    999.0
 262   22:40   69.8    29    9.5   310     14.0   846.9    0.00       0    999.0
 262   22:50   69.5    30    8.4   311     14.4   846.9    0.00       0    999.0
 262   23:00   68.6    31    4.6    27      8.4   847.0    0.00       0    999.0
 262   23:10   68.1    31    3.2     6      8.2   847.0    0.00       0    999.0
 262   23:20   68.3    31    1.9    10      6.2   847.0    0.00       0    999.0
 262   23:30   67.0    32    2.5     6      5.9   847.0    0.00       0    999.0
 262   23:40   67.8    31    3.3   333      9.0   847.0    0.00       0    999.0
 262   23:50   66.1    34    3.1    41      6.4   847.1    0.00       0    999.0
 263    0:00   66.6    33    4.8    21      8.8   847.2    0.00       0    999.0
 263    0:10   66.4    33    6.3   312      9.2   847.2    0.00       0    999.0
 263    0:20   63.3    37    6.6   307      9.5   847.1    0.00       0    999.0
 263    0:30   62.9    38    6.4   320      9.7   847.1    0.00       0    999.0
 263    0:40   63.3    37    5.8   325      9.2   847.2    0.00       0    999.0
 263    0:50   63.5    37    6.3   324      9.9   847.2    0.00       0    999.0
 263    1:00   63.0    38    6.3   319      9.2   847.2    0.00       0    999.0
 263    1:10   63.0    38    5.3   327      9.6   847.2    0.00       0    999.0
 263    1:20   63.6    37    6.5   320     10.6   847.2    0.00       0    999.0
 263    1:30   63.6    36    5.6   326      8.3   847.3    0.00       0    999.0
 263    1:40   63.3    37    4.8   333      8.0   847.3    0.00       0    999.0
 263    1:50   63.4    37    5.4   323      8.0   847.3    0.00       0    999.0
 263    2:00   62.8    38    5.3   323      8.1   847.3    0.00       0    999.0
 263    2:10   62.1    39    5.9   320      8.3   847.3    0.00       0    999.0
 263    2:20   62.2    38    6.0   318      8.7   847.3    0.00       0    999.0
 263    2:30   62.0    39    5.5   320      7.5   847.4    0.00       0    999.0
 263    2:40   61.7    39    5.5   327      8.0   847.4    0.00       0    999.0
 263    2:50   62.3    38    4.3   333      8.5   847.4    0.00       0    999.0
 263    3:00   61.7    39    5.6   321      8.7   847.5    0.00       0    999.0
 263    3:10   61.6    39    5.4   323      9.0   847.5    0.00       0    999.0
 263    3:20   60.6    41    5.4   321      7.8   847.6    0.00       0    999.0
 263    3:30   60.6    41    5.1   323      8.4   847.6    0.00       0    999.0
 263    3:40   60.5    41    5.1   326      7.8   847.5    0.00       0    999.0
 263    3:50   61.2    40    6.5   324      9.8   847.5    0.00       0    999.0
 263    4:00   61.1    40    5.9   330     10.1   847.6    0.00       0    999.0
 263    4:10   60.9    41    6.2   326     10.9   847.7    0.00       0    999.0
 263    4:20   60.7    41    6.9   318     11.1   847.7    0.00       0    999.0
 263    4:30   60.0    43    6.8   326     11.0   847.8    0.00       0    999.0
 263    4:40   59.1    44    7.3   317     10.5   847.8    0.00       0    999.0
 263    4:50   58.9    44    6.1   322      9.3   847.8    0.00       0    999.0
 263    5:00   59.9    42    6.9   318     10.9   847.8    0.00       0    999.0
 263    5:10   59.8    42    6.9   317     10.6   848.0    0.00       0    999.0
 263    5:20   59.0    44    7.3   318     10.3   848.0    0.00       0    999.0
 263    5:30   59.4    43    6.2   323      9.4   848.1    0.00       0    999.0
 263    5:40   59.9    42    6.6   317      9.1   848.1    0.00       1    999.0
 263    5:50   60.1    41    5.7   322      8.4   848.2    0.00       5    999.0
 263    6:00   60.4    41    3.9   339      8.4   848.3    0.00      16    999.0
 263    6:10   61.0    40    2.5   353      5.4   848.4    0.00      39    999.0
 263    6:20   61.2    40    3.5    16      6.8   848.4    0.00      57    999.0
 263    6:30   61.8    40    2.9    20      6.0   848.5    0.00      70    999.0
 263    6:40   61.9    39    3.2   352      7.2   848.6    0.00      88    999.0
 263    6:50   61.4    43    2.7    43      5.7   848.8    0.00     115    999.0
 263    7:00   60.5    46    1.6    80      4.3   848.9    0.00     184    999.0
 263    7:10   60.3    45    2.4    65      4.9   849.0    0.00     238    999.0
 263    7:20   60.5    45    1.4    50      3.8   849.0    0.00     180    999.0
 263    7:30   62.3    42    1.5   110      2.7   848.9    0.00     239    999.0
 263    7:40   63.8    40    1.9   113      3.0   849.0    0.00     276    999.0
 263    7:50   65.2    38    2.0    99      3.2   849.0    0.00     335    999.0
 263    8:00   65.6    38    1.7    80      3.3   849.0    0.00     342    999.0
 263    8:10   67.4    36    2.6    94      4.4   849.1    0.00     401    999.0
 263    8:20   66.7    37    2.7    83      4.6   849.1    0.00     480    999.0
 263    8:30   68.6    34    2.2    76      3.9   849.1    0.00     503    999.0
 263    8:40   70.9    31    1.8   114      4.1   849.2    0.00     522    999.0
 263    8:50   74.4    28    3.1   145      5.5   849.1    0.00     544    999.0
 263    9:00   75.7    27    2.7   142      4.6   849.1    0.00     565    999.0
 263    9:10   75.1    26    3.7   109      5.4   849.1    0.00     587    999.0
 263    9:20   74.8    25    3.4    91      6.5   849.1    0.00     617    999.0
 263    9:30   74.7    25    3.6    84      7.3   849.0    0.00     549    999.0
 263    9:40   74.6    25    5.5    98      9.0   848.9    0.00     654    999.0
 263    9:50   74.8    25    5.3    84      9.5   849.0    0.00     680    999.0
 263   10:00   75.1    25    5.2    70     10.7   849.0    0.00     695    999.0
 263   10:10   76.4    24    4.8   112      9.5   849.0    0.00     699    999.0
 263   10:20   77.8    22    3.4   111      7.9   848.8    0.00     724    999.0
 263   10:30   79.3    21    3.8   168     10.0   848.8    0.00     743    999.0
 263   10:40   77.7    22    5.1    91     10.9   848.6    0.00     708    999.0
 263   10:50   77.5    22    4.9   101      9.6   848.5    0.00     605    999.0
 263   11:00   78.8    21    4.8   101      9.7   848.2    0.00     802    999.0
 263   11:10   80.6    20    5.1    96     10.9   848.0    0.00     804    999.0
 263   11:20   80.1    20    5.0   112     10.4   847.9    0.00     691    999.0
 263   11:30   79.9    20    4.2    95      9.6   847.8    0.00     670    999.0
 263   11:40   80.6    20    4.7    72      9.3   847.8    0.00     652    999.0
 263   11:50   80.7    20    5.8    68      9.4   847.7    0.00     767    999.0
 263   12:00   82.0    18    2.6   144     11.2   847.6    0.00     725    999.0
 263   12:10   81.5    19    7.3    51     13.0   847.5    0.00     707    999.0
 263   12:20   80.9    19    3.1    55      8.7   847.4    0.00     629    999.0
 263   12:30   81.5    19    4.9    56     10.7   847.3    0.00     664    999.0
 263   12:40   81.1    19    6.7    88     14.4   847.3    0.00     558    999.0
 263   12:50   81.6    18    4.2    43     11.4   847.2    0.00     669    999.0
 263   13:00   81.5    18    4.9    17     14.3   847.1    0.00     408    999.0
 263   13:10   81.9    18    5.3    55     12.8   847.0    0.00     652    999.0
 263   13:20   82.5    18    6.8    58     12.4   846.8    0.00     672    999.0
 263   13:30   82.2    18    7.4    67     13.6   846.8    0.00     424    999.0
 263   13:40   82.4    18    6.7    54     18.2   846.7    0.00     682    999.0
 263   13:50   82.7    18    7.5    53     14.9   846.5    0.00     641    999.0
 263   14:00   82.4    18    9.2    62     19.0   846.4    0.00     515    999.0
 263   14:10   82.7    18    6.6    34     13.9   846.2    0.00     657    999.0
 263   14:20   83.6    17    6.9    51     13.4   846.2    0.00     684    999.0
 263   14:30   83.6    17    8.3    56     15.4   846.2    0.00     668    999.0
 263   14:40   83.9    17    5.3    54      9.8   846.0    0.00     579    999.0
 263   14:50   83.9    17    6.7    79     13.2   846.0    0.00     473    999.0
 263   15:00   82.9    17    5.4    55     10.9   846.0    0.00     320    999.0
 263   15:10   82.5    18    9.9    62     17.7   845.9    0.00     286    999.0
 263   15:20   81.7    19    9.8    62     19.9   845.9    0.00     229    999.0
 263   15:30   80.3    21   12.2    68     20.9   846.0    0.00     158    999.0
 263   15:40   79.6    22   10.9    61     17.7   846.0    0.00     142    999.0
 263   15:50   79.6    22    9.5    57     17.0   846.1    0.00     130    999.0
 263   16:00   79.1    23    9.3    62     16.8   846.0    0.00      98    999.0
 263   16:10   78.7    24    9.5    59     17.7   845.9    0.00      84    999.0
 263   16:20   78.4    24    8.3    56     16.6   845.8    0.00      82    999.0
 263   16:30   78.2    24    7.8    58     13.6   845.7    0.00      78    999.0
 263   16:40   78.1    24    7.9    59     14.7   845.9    0.00      84    999.0
 263   16:50   78.1    24    8.3    72     14.6   846.1    0.00      75    999.0
 263   17:00   78.0    25    8.9    61     16.1   846.3    0.00      57    999.0
 263   17:10   77.9    25    8.3    60     15.0   846.2    0.00      37    999.0
 263   17:20   77.7    25    8.1    63     13.1   846.2    0.00      21    999.0
 263   17:30   77.5    25    8.3    70     13.7   846.1    0.00      15    999.0
 263   17:40   77.0    25    8.9    68     14.8   846.1    0.00      12    999.0
 263   17:50   76.5    26    7.1    63     12.0   846.1    0.00       7    999.0
 263   18:00   76.1    26    5.5    74     11.4   846.1    0.00       3    999.0
 263   18:10   75.8    27    4.2    78      9.4   846.0    0.00       3    999.0
 263   18:20   75.5    27    3.3    68      6.6   846.0    0.00       0    999.0

Return to Yerington, Nevada graphs page.


Western Regional Climate Center,wrcc@dri.edu